createdAt,value
2022-12-17T00:01:41.340Z,38.75
2022-12-17T00:04:26.992Z,41.00
2022-12-17T00:07:12.341Z,40.50
2022-12-17T00:09:57.794Z,41.25
2022-12-17T00:12:43.500Z,40.25
2022-12-17T00:15:29.413Z,43.00
2022-12-17T00:18:17.540Z,41.75
2022-12-17T00:21:03.021Z,44.25
2022-12-17T00:23:48.638Z,43.25
2022-12-17T00:26:34.243Z,44.75
2022-12-17T00:29:31.056Z,44.50
2022-12-17T00:32:17.847Z,42.00
2022-12-17T00:35:03.158Z,45.00
2022-12-17T00:37:48.561Z,42.50
2022-12-17T00:40:33.935Z,45.50
2022-12-17T00:43:20.454Z,44.50
2022-12-17T00:46:05.752Z,44.50
2022-12-17T00:48:52.603Z,43.25
2022-12-17T00:51:37.805Z,43.50
2022-12-17T00:54:23.171Z,43.25
2022-12-17T00:57:08.237Z,44.00
2022-12-17T00:59:53.545Z,44.00
2022-12-17T01:02:39.236Z,44.00
2022-12-17T01:05:35.190Z,43.00
2022-12-17T01:08:26.174Z,43.00
2022-12-17T01:11:11.442Z,41.75
2022-12-17T01:13:59.428Z,43.00
2022-12-17T01:16:44.855Z,41.75
2022-12-17T01:19:30.206Z,43.00
2022-12-17T01:22:17.324Z,41.00
2022-12-17T01:24:59.003Z,41.25
2022-12-17T01:27:44.323Z,42.50
2022-12-17T01:30:30.092Z,40.50
2022-12-17T01:33:20.175Z,38.50
2022-12-17T01:36:05.606Z,38.00
2022-12-17T01:38:52.529Z,38.75
2022-12-17T01:41:37.689Z,39.00
2022-12-17T01:45:08.894Z,36.25
2022-12-17T01:47:56.534Z,37.75
2022-12-17T01:50:42.806Z,38.00
2022-12-17T01:53:28.511Z,36.00
2022-12-17T01:56:15.008Z,37.25
2022-12-17T01:59:00.262Z,34.00
2022-12-17T02:01:45.771Z,37.00
2022-12-17T02:04:31.167Z,34.00
2022-12-17T02:07:27.871Z,33.50
2022-12-17T02:10:16.663Z,35.00
2022-12-17T02:13:04.083Z,34.75
2022-12-17T02:15:50.913Z,35.75
2022-12-17T02:18:33.967Z,35.00
2022-12-17T02:21:19.289Z,31.75
2022-12-17T02:24:07.851Z,33.00
2022-12-17T02:26:55.935Z,32.50
2022-12-17T02:29:42.383Z,31.00
2022-12-17T02:32:27.931Z,32.50
2022-12-17T02:35:13.005Z,31.50
2022-12-17T02:38:03.949Z,29.25
2022-12-17T02:40:49.276Z,30.50
2022-12-17T02:43:36.632Z,29.75
2022-12-17T02:46:22.633Z,28.25
2022-12-17T02:49:08.266Z,29.75
2022-12-17T02:51:54.047Z,27.50
2022-12-17T02:54:39.733Z,29.25
2022-12-17T02:57:24.830Z,29.25
2022-12-17T03:00:11.827Z,28.50
2022-12-17T03:02:57.400Z,22.50
2022-12-17T03:05:45.386Z,30.25
2022-12-17T03:08:31.225Z,26.50
2022-12-17T03:11:16.563Z,23.50
2022-12-17T03:14:02.134Z,29.00
2022-12-17T03:16:49.023Z,22.00
2022-12-17T03:19:34.180Z,25.00
2022-12-17T03:22:19.805Z,25.50
2022-12-17T03:25:04.866Z,24.50
2022-12-17T03:27:50.239Z,25.25
2022-12-17T03:30:39.073Z,25.75
2022-12-17T03:33:34.349Z,21.75
2022-12-17T03:36:20.034Z,25.50
2022-12-17T03:39:05.257Z,22.25
2022-12-17T03:41:50.680Z,22.00
2022-12-17T03:44:35.953Z,21.75
2022-12-17T03:47:21.038Z,25.25
2022-12-17T03:50:07.837Z,23.00
2022-12-17T03:52:49.901Z,22.00
2022-12-17T03:55:35.260Z,23.00
2022-12-17T03:58:20.524Z,19.75
2022-12-17T04:01:05.718Z,21.50
2022-12-17T04:03:51.026Z,21.25
2022-12-17T04:06:37.669Z,20.00
2022-12-17T04:09:23.072Z,20.25
2022-12-17T04:12:08.341Z,20.75
2022-12-17T04:14:53.780Z,21.00
2022-12-17T04:17:39.015Z,19.00
2022-12-17T04:20:30.621Z,20.00
2022-12-17T04:23:17.457Z,22.00
2022-12-17T04:26:02.845Z,17.75
2022-12-17T04:28:48.306Z,20.00
2022-12-17T04:31:33.821Z,19.00
2022-12-17T04:34:19.312Z,21.00
2022-12-17T04:37:04.481Z,18.25
2022-12-17T04:39:51.107Z,21.00
2022-12-17T04:42:37.699Z,18.50
2022-12-17T04:45:23.648Z,19.25
2022-12-17T04:48:08.589Z,19.25
2022-12-17T04:50:53.841Z,17.25
2022-12-17T04:53:39.704Z,18.00
2022-12-17T04:56:26.399Z,18.75
2022-12-17T04:59:11.729Z,18.50
2022-12-17T05:01:57.228Z,18.25
2022-12-17T05:04:42.742Z,19.50
2022-12-17T05:07:28.010Z,16.00
2022-12-17T05:10:13.333Z,19.25
2022-12-17T05:13:00.590Z,17.50
2022-12-17T05:15:49.741Z,17.00
2022-12-17T05:18:38.309Z,16.00
2022-12-17T05:21:23.711Z,16.00
2022-12-17T05:24:09.658Z,18.25
2022-12-17T05:26:54.698Z,16.50
2022-12-17T05:29:43.966Z,19.00
2022-12-17T05:32:30.806Z,19.00
2022-12-17T05:35:15.774Z,15.25
2022-12-17T05:38:01.120Z,19.25
2022-12-17T05:40:46.489Z,17.00
2022-12-17T05:43:32.056Z,18.00
2022-12-17T05:46:18.971Z,16.00
2022-12-17T05:49:04.076Z,17.50
2022-12-17T05:51:49.455Z,14.50
2022-12-17T05:54:35.141Z,18.00
2022-12-17T05:57:20.466Z,17.50
2022-12-17T06:00:07.832Z,17.00
2022-12-17T06:02:55.008Z,16.00
2022-12-17T06:05:40.439Z,17.00
2022-12-17T06:08:26.378Z,16.00
2022-12-17T06:11:11.720Z,17.50
2022-12-17T06:13:57.227Z,17.00
2022-12-17T06:16:42.342Z,15.75
2022-12-17T06:19:29.291Z,15.00
2022-12-17T06:22:15.060Z,12.00
2022-12-17T06:25:00.365Z,17.00
2022-12-17T06:27:45.798Z,17.00
2022-12-17T06:30:31.253Z,15.00
2022-12-17T06:33:22.912Z,18.25
2022-12-17T06:36:10.790Z,15.75
2022-12-17T06:38:56.243Z,16.50
2022-12-17T06:41:41.629Z,16.50
2022-12-17T06:44:27.310Z,15.25
2022-12-17T06:47:24.081Z,16.00
2022-12-17T06:50:09.430Z,15.00
2022-12-17T06:52:56.772Z,14.25
2022-12-17T06:55:41.892Z,14.00
2022-12-17T06:58:27.328Z,14.00
2022-12-17T07:01:12.740Z,18.25
2022-12-17T07:03:58.153Z,17.75
2022-12-17T07:06:43.332Z,18.50
2022-12-17T07:09:44.628Z,20.00
2022-12-17T07:12:30.239Z,23.00
2022-12-17T07:15:15.521Z,27.50
2022-12-17T07:18:01.017Z,22.50
2022-12-17T07:20:46.413Z,28.50
2022-12-17T07:23:32.088Z,28.00
2022-12-17T07:26:19.110Z,28.00
2022-12-17T07:29:04.406Z,28.50
2022-12-17T07:31:49.797Z,31.50
2022-12-17T07:34:35.247Z,27.50
2022-12-17T07:37:20.836Z,28.25
2022-12-17T07:40:06.303Z,28.75
2022-12-17T07:42:53.563Z,29.75
2022-12-17T07:45:39.037Z,27.50
2022-12-17T07:48:24.736Z,29.25
2022-12-17T07:51:10.068Z,31.50
2022-12-17T07:53:55.787Z,27.75
2022-12-17T07:56:41.410Z,30.00
2022-12-17T07:59:28.250Z,26.00
2022-12-17T08:02:14.182Z,27.00
2022-12-17T08:04:59.669Z,25.50
2022-12-17T08:07:45.085Z,25.50
2022-12-17T08:10:30.333Z,25.75
2022-12-17T08:13:15.954Z,22.00
2022-12-17T08:16:02.758Z,24.50
2022-12-17T08:18:48.060Z,25.75
2022-12-17T08:21:33.386Z,24.25
2022-12-17T08:24:18.876Z,22.00
2022-12-17T08:27:04.111Z,23.75
2022-12-17T08:29:49.477Z,20.75
2022-12-17T08:32:36.434Z,22.00
2022-12-17T08:35:21.649Z,22.25
2022-12-17T08:38:06.982Z,21.25
2022-12-17T08:40:52.224Z,19.25
2022-12-17T08:43:37.923Z,21.00
2022-12-17T08:46:23.740Z,21.00
2022-12-17T08:49:10.403Z,21.50
2022-12-17T08:51:55.771Z,19.00
2022-12-17T08:54:41.434Z,19.00
2022-12-17T08:57:31.828Z,19.50
2022-12-17T09:00:17.626Z,18.50
2022-12-17T09:03:03.362Z,18.00
2022-12-17T09:05:50.248Z,19.75
2022-12-17T09:08:35.578Z,18.50
2022-12-17T09:11:20.848Z,16.00
2022-12-17T09:14:06.498Z,18.75
2022-12-17T09:16:51.977Z,19.25
2022-12-17T09:19:37.102Z,17.75
2022-12-17T09:22:24.367Z,17.25
2022-12-17T09:25:09.446Z,17.00
2022-12-17T09:27:54.867Z,18.25
2022-12-17T09:30:40.213Z,19.50
2022-12-17T09:33:25.950Z,16.50
2022-12-17T09:36:11.671Z,17.50
2022-12-17T09:38:58.318Z,14.00
2022-12-17T09:41:45.186Z,17.00
2022-12-17T09:44:36.469Z,16.50
2022-12-17T09:47:26.939Z,15.00
2022-12-17T09:50:12.630Z,13.75
2022-12-17T09:53:01.060Z,15.25
2022-12-17T09:55:50.775Z,18.75
2022-12-17T09:58:37.781Z,24.50
2022-12-17T10:01:23.652Z,22.25
2022-12-17T10:04:08.951Z,24.00
2022-12-17T10:06:54.705Z,23.75
2022-12-17T10:09:39.905Z,27.75
2022-12-17T10:12:32.687Z,25.50
2022-12-17T10:15:32.803Z,30.75
2022-12-17T10:18:18.481Z,30.25
2022-12-17T10:21:06.231Z,31.00
2022-12-17T10:23:52.255Z,34.00
2022-12-17T10:26:38.058Z,32.50
2022-12-17T10:29:27.979Z,30.75
2022-12-17T10:32:13.744Z,30.25
2022-12-17T10:35:04.940Z,32.25
2022-12-17T10:37:52.764Z,30.75
2022-12-17T10:40:42.022Z,29.75
2022-12-17T10:43:44.059Z,31.00
2022-12-17T10:46:31.050Z,31.25
2022-12-17T10:49:23.709Z,29.00
2022-12-17T10:52:09.095Z,29.00
2022-12-17T10:54:54.803Z,29.50
2022-12-17T10:58:00.724Z,28.25
2022-12-17T11:00:50.313Z,29.50
2022-12-17T11:03:46.683Z,24.25
2022-12-17T11:06:37.422Z,27.75
2022-12-17T11:09:23.255Z,26.75
2022-12-17T11:12:08.619Z,30.25
2022-12-17T11:14:58.628Z,31.75
2022-12-17T11:17:43.988Z,32.25
2022-12-17T11:20:39.159Z,32.50
2022-12-17T11:23:24.661Z,33.00
2022-12-17T11:26:13.037Z,33.00
2022-12-17T11:28:58.440Z,33.75
2022-12-17T11:31:57.887Z,33.75
2022-12-17T11:34:48.244Z,33.50
2022-12-17T11:37:33.305Z,33.75
2022-12-17T11:40:20.500Z,34.50
2022-12-17T11:43:08.613Z,32.00
2022-12-17T11:45:55.909Z,34.25
2022-12-17T11:48:44.273Z,34.25
2022-12-17T11:51:31.710Z,33.50
2022-12-17T11:54:20.845Z,31.00
2022-12-17T11:57:08.096Z,31.25
2022-12-17T11:59:58.164Z,33.25
2022-12-17T12:03:01.063Z,31.50
2022-12-17T12:05:56.427Z,31.50
2022-12-17T12:08:43.137Z,31.00
2022-12-17T12:11:47.820Z,31.00
2022-12-17T12:14:41.226Z,29.00
2022-12-17T12:17:36.865Z,29.00
2022-12-17T12:20:24.575Z,31.75
2022-12-17T12:23:13.188Z,26.75
2022-12-17T12:26:00.988Z,32.50
2022-12-17T12:28:49.912Z,27.00
2022-12-17T12:31:40.820Z,28.00
2022-12-17T12:34:28.192Z,28.00
2022-12-17T12:37:13.648Z,27.00
2022-12-17T12:40:00.549Z,26.00
2022-12-17T12:42:48.523Z,27.50
2022-12-17T12:45:49.575Z,26.75
2022-12-17T12:48:43.291Z,27.00
2022-12-17T12:51:34.236Z,25.50
2022-12-17T12:54:21.123Z,25.00
2022-12-17T12:57:06.367Z,24.50
2022-12-17T12:59:52.831Z,23.50
2022-12-17T13:02:45.689Z,25.75
2022-12-17T13:05:33.786Z,26.00
2022-12-17T13:08:20.698Z,26.00
2022-12-17T13:10:48.690Z,26.25
2022-12-17T13:13:25.896Z,29.50
2022-12-17T13:15:55.472Z,32.25
2022-12-17T13:18:28.487Z,33.25
2022-12-17T13:21:03.437Z,33.25
2022-12-17T13:23:33.637Z,33.00
2022-12-17T13:26:23.480Z,35.75
2022-12-17T13:29:03.264Z,35.75
2022-12-17T13:31:32.274Z,38.25
2022-12-17T13:34:07.117Z,39.00
2022-12-17T13:36:38.804Z,46.00
2022-12-17T13:39:20.464Z,40.75
2022-12-17T13:41:54.558Z,42.00
2022-12-17T13:44:24.059Z,39.00
2022-12-17T13:46:52.741Z,43.75
2022-12-17T13:49:23.006Z,43.75
2022-12-17T13:52:03.284Z,43.50
2022-12-17T13:54:34.568Z,44.00
2022-12-17T13:57:09.626Z,45.75
2022-12-17T13:59:37.608Z,44.50
2022-12-17T14:02:06.773Z,45.75
2022-12-17T14:04:36.217Z,45.00
2022-12-17T14:07:05.295Z,45.00
2022-12-17T14:09:34.965Z,45.75
2022-12-17T14:12:20.776Z,44.75
2022-12-17T14:14:49.494Z,44.00
2022-12-17T14:17:20.807Z,45.00
2022-12-17T14:19:50.223Z,43.00
2022-12-17T14:22:20.225Z,44.50
2022-12-17T14:24:48.392Z,43.50
2022-12-17T14:27:23.304Z,46.00
2022-12-17T14:29:51.164Z,45.00
2022-12-17T14:32:31.407Z,46.25
2022-12-17T14:35:01.219Z,47.25
2022-12-17T14:37:29.533Z,44.75
2022-12-17T14:39:59.890Z,45.75
2022-12-17T14:42:29.460Z,46.00
2022-12-17T14:44:59.362Z,44.75
2022-12-17T14:47:28.253Z,46.50
2022-12-17T14:49:58.626Z,45.75
2022-12-17T14:52:34.656Z,46.75
2022-12-17T14:55:02.839Z,46.00
2022-12-17T14:57:30.731Z,44.75
2022-12-17T14:59:58.602Z,43.75
2022-12-17T15:02:27.728Z,44.50
2022-12-17T15:04:58.254Z,42.25
2022-12-17T15:07:26.889Z,44.25
2022-12-17T15:09:56.371Z,43.25
2022-12-17T15:12:24.877Z,42.25
2022-12-17T15:14:53.040Z,42.75
2022-12-17T15:17:20.942Z,40.75
2022-12-17T15:19:54.248Z,43.50
2022-12-17T15:22:24.041Z,41.00
2022-12-17T15:24:51.934Z,41.00
2022-12-17T15:27:21.200Z,41.75
2022-12-17T15:29:49.048Z,39.00
2022-12-17T15:32:19.246Z,40.50
2022-12-17T15:34:47.382Z,40.25
2022-12-17T15:37:15.291Z,37.50
2022-12-17T15:39:43.222Z,39.00
2022-12-17T15:42:28.012Z,38.75
2022-12-17T15:44:57.373Z,36.25
2022-12-17T15:47:25.238Z,36.75
2022-12-17T15:49:53.133Z,38.75
2022-12-17T15:52:21.354Z,36.50
2022-12-17T15:54:49.281Z,35.25
2022-12-17T15:57:18.882Z,36.00
2022-12-17T15:59:46.985Z,35.00
2022-12-17T16:02:16.381Z,34.50
2022-12-17T16:04:44.654Z,35.00
2022-12-17T16:07:13.007Z,34.00
2022-12-17T16:09:40.890Z,37.25
2022-12-17T16:12:08.894Z,35.25
2022-12-17T16:14:36.808Z,33.00
2022-12-17T16:17:04.679Z,33.25
2022-12-17T16:19:33.949Z,34.00
2022-12-17T16:22:01.991Z,34.25
2022-12-17T16:24:30.209Z,34.75
2022-12-17T16:27:04.055Z,33.50
2022-12-17T16:29:32.495Z,32.75
2022-12-17T16:32:00.549Z,34.00
2022-12-17T16:34:28.997Z,34.00
2022-12-17T16:36:58.261Z,33.25
2022-12-17T16:39:26.135Z,40.00
2022-12-17T16:41:53.977Z,35.75
2022-12-17T16:44:21.833Z,37.50
2022-12-17T16:46:50.257Z,36.50
2022-12-17T16:49:19.692Z,39.00
2022-12-17T16:51:48.268Z,39.50
2022-12-17T16:54:19.268Z,39.75
2022-12-17T16:56:47.327Z,41.00
2022-12-17T16:59:15.744Z,40.00
2022-12-17T17:01:44.905Z,40.25
2022-12-17T17:04:13.167Z,40.75
2022-12-17T17:06:41.594Z,40.25
2022-12-17T17:09:09.605Z,41.00
2022-12-17T17:11:38.882Z,41.00
2022-12-17T17:14:06.901Z,40.75
2022-12-17T17:16:35.238Z,41.00
2022-12-17T17:19:03.829Z,43.00
2022-12-17T17:21:33.332Z,41.75
2022-12-17T17:24:01.895Z,41.50
2022-12-17T17:26:30.366Z,40.00
2022-12-17T17:28:59.857Z,43.50
2022-12-17T17:32:01.242Z,41.75
2022-12-17T17:34:16.053Z,41.25
2022-12-17T17:36:44.220Z,39.75
2022-12-17T17:39:12.098Z,40.25
2022-12-17T17:41:40.091Z,41.75
2022-12-17T17:44:11.211Z,40.75
2022-12-17T17:46:39.380Z,38.75
2022-12-17T17:49:08.009Z,40.00
2022-12-17T17:52:07.735Z,38.75
2022-12-17T17:54:25.091Z,39.75
2022-12-17T17:56:53.228Z,41.00
2022-12-17T17:59:30.968Z,39.75
2022-12-17T18:02:01.287Z,38.00
2022-12-17T18:04:29.868Z,36.75
2022-12-17T18:09:45.684Z,36.75
2022-12-17T18:12:31.253Z,36.25
2022-12-17T18:15:18.862Z,35.50
2022-12-17T18:17:47.422Z,35.75
2022-12-17T18:20:15.357Z,36.25
2022-12-17T18:22:43.381Z,34.25
2022-12-17T18:25:11.744Z,36.00
2022-12-17T18:27:39.827Z,35.50
2022-12-17T18:30:12.631Z,35.50
2022-12-17T18:32:40.819Z,35.75
2022-12-17T18:35:10.177Z,36.75
2022-12-17T18:37:44.453Z,39.00
2022-12-17T18:40:14.827Z,36.75
2022-12-17T18:43:03.341Z,38.50
2022-12-17T18:45:45.329Z,38.00
2022-12-17T18:48:13.569Z,37.75
2022-12-17T18:50:41.425Z,37.50
2022-12-17T18:53:09.597Z,37.50
2022-12-17T18:55:40.506Z,36.75
2022-12-17T18:58:09.150Z,37.00
2022-12-17T19:00:39.840Z,36.00
2022-12-17T19:03:10.101Z,38.00
2022-12-17T19:05:45.181Z,38.00
2022-12-17T19:08:14.473Z,40.50
2022-12-17T19:10:42.705Z,39.25
2022-12-17T19:13:10.945Z,40.25
2022-12-17T19:15:40.230Z,41.50
2022-12-17T19:18:08.081Z,42.00
2022-12-17T19:20:35.978Z,41.00
2022-12-17T19:23:03.917Z,41.25
2022-12-17T19:25:32.273Z,42.75
2022-12-17T19:28:00.206Z,43.75
2022-12-17T19:30:28.165Z,42.50
2022-12-17T19:32:57.482Z,41.75
2022-12-17T19:35:25.787Z,42.75
2022-12-17T19:37:53.725Z,43.00
2022-12-17T19:40:21.654Z,43.00
2022-12-17T19:42:49.525Z,43.00
2022-12-17T19:45:17.582Z,42.50
2022-12-17T19:47:45.451Z,41.50
2022-12-17T19:50:14.821Z,41.75
2022-12-17T19:52:42.736Z,40.75
2022-12-17T19:55:11.156Z,42.25
2022-12-17T19:57:39.253Z,39.75
2022-12-17T20:00:10.847Z,42.00
2022-12-17T20:02:39.085Z,40.75
2022-12-17T20:05:08.217Z,39.50
2022-12-17T20:07:37.514Z,40.75
2022-12-17T20:10:06.043Z,38.75
2022-12-17T20:12:33.987Z,38.00
2022-12-17T20:15:02.348Z,38.75
2022-12-17T20:17:30.540Z,39.00
2022-12-17T20:19:58.554Z,36.50
2022-12-17T20:22:26.564Z,35.50
2022-12-17T20:24:56.241Z,36.25
2022-12-17T20:27:24.114Z,37.25
2022-12-17T20:29:52.177Z,36.25
2022-12-17T20:32:21.319Z,37.50
2022-12-17T20:34:49.698Z,36.25
2022-12-17T20:37:17.666Z,36.00
2022-12-17T20:39:45.555Z,37.75
2022-12-17T20:42:14.869Z,36.50
2022-12-17T20:44:42.871Z,36.00
2022-12-17T20:47:10.733Z,38.50
2022-12-17T20:49:38.605Z,40.25
2022-12-17T20:52:06.533Z,38.75
2022-12-17T20:54:35.708Z,41.00
2022-12-17T20:57:03.565Z,42.50
2022-12-17T20:59:32.853Z,41.00
2022-12-17T21:02:00.870Z,41.25
2022-12-17T21:04:29.282Z,41.25
2022-12-17T21:06:57.145Z,41.25
2022-12-17T21:09:25.553Z,42.25
2022-12-17T21:11:53.608Z,42.75
2022-12-17T21:14:21.506Z,41.75
2022-12-17T21:16:51.113Z,41.75
2022-12-17T21:19:22.056Z,43.25
2022-12-17T21:21:50.118Z,43.25
2022-12-17T21:24:18.010Z,42.75
2022-12-17T21:26:47.064Z,43.25
2022-12-17T21:29:15.537Z,41.50
2022-12-17T21:31:44.775Z,42.00
2022-12-17T21:34:15.233Z,43.50
2022-12-17T21:36:43.245Z,43.25
2022-12-17T21:39:11.212Z,41.75
2022-12-17T21:41:42.555Z,42.75
2022-12-17T21:44:13.356Z,43.75
2022-12-17T21:46:42.867Z,42.50
2022-12-17T21:49:12.889Z,43.00
2022-12-17T21:51:41.014Z,44.00
2022-12-17T21:54:11.401Z,43.75
2022-12-17T21:56:41.193Z,44.00
2022-12-17T21:59:09.067Z,44.25
2022-12-17T22:01:37.095Z,43.25
2022-12-17T22:04:05.420Z,43.50
2022-12-17T22:06:43.711Z,42.25
2022-12-17T22:09:30.512Z,40.75
2022-12-17T22:12:32.991Z,41.25
2022-12-17T22:15:00.878Z,41.75
2022-12-17T22:17:29.569Z,40.00
2022-12-17T22:19:57.469Z,39.75
2022-12-17T22:22:26.782Z,41.25
2022-12-17T22:24:55.097Z,39.75
2022-12-17T22:27:23.119Z,40.75
2022-12-17T22:30:09.516Z,40.25
2022-12-17T22:32:54.748Z,37.75
2022-12-17T22:36:57.795Z,37.75
2022-12-17T22:42:41.407Z,37.25
2022-12-17T22:44:32.403Z,38.25
2022-12-17T22:44:45.171Z,38.75
2022-12-17T22:46:41.332Z,36.50
2022-12-17T22:49:09.269Z,38.50
2022-12-17T22:51:37.241Z,38.50
2022-12-17T22:54:11.514Z,37.00
2022-12-17T22:57:15.340Z,39.25
2022-12-17T22:59:28.696Z,39.25
2022-12-17T23:01:56.617Z,39.50
2022-12-17T23:04:24.575Z,39.00
2022-12-17T23:06:52.541Z,39.25
2022-12-17T23:09:22.066Z,39.75
2022-12-17T23:11:49.973Z,39.75
2022-12-17T23:14:18.093Z,42.75
2022-12-17T23:16:46.154Z,40.50
2022-12-17T23:19:14.153Z,43.00
2022-12-17T23:21:42.172Z,43.50
2022-12-17T23:24:10.428Z,43.00
2022-12-17T23:26:40.680Z,44.00
2022-12-17T23:29:09.502Z,44.50
2022-12-17T23:31:40.224Z,44.75
2022-12-17T23:34:08.465Z,45.25
2022-12-17T23:36:36.676Z,45.25
2022-12-17T23:39:04.860Z,44.75
2022-12-17T23:41:32.936Z,43.50
2022-12-17T23:44:02.267Z,44.00
2022-12-17T23:46:30.692Z,45.75
2022-12-17T23:48:58.682Z,45.00
2022-12-17T23:51:26.733Z,43.00
2022-12-17T23:53:54.615Z,44.50
2022-12-17T23:56:23.506Z,42.25
2022-12-17T23:58:53.155Z,43.50
